createdAt,value
2019-01-16T00:00:36.845Z,25.90
2019-01-16T00:01:32.236Z,26.00
2019-01-16T00:02:40.984Z,26.20
2019-01-16T00:03:29.983Z,26.30
2019-01-16T00:04:19.422Z,26.40
2019-01-16T00:05:19.341Z,26.50
2019-01-16T00:06:09.664Z,26.60
2019-01-16T00:07:21.469Z,26.60
2019-01-16T00:08:21.132Z,26.70
2019-01-16T00:09:16.295Z,26.80
2019-01-16T00:10:11.612Z,26.80
2019-01-16T00:10:58.701Z,26.90
2019-01-16T00:11:58.544Z,27.00
2019-01-16T00:12:57.186Z,27.00
2019-01-16T00:13:48.289Z,27.00
2019-01-16T00:14:43.776Z,27.10
2019-01-16T00:15:40.535Z,27.10
2019-01-16T00:16:52.548Z,27.10
2019-01-16T00:17:47.369Z,27.20
2019-01-16T00:18:53.613Z,27.20
2019-01-16T00:20:05.488Z,27.20
2019-01-16T00:21:01.427Z,27.20
2019-01-16T00:22:08.925Z,27.20
2019-01-16T00:23:14.635Z,27.20
2019-01-16T00:24:11.788Z,27.20
2019-01-16T00:25:12.298Z,27.20
2019-01-16T00:26:08.037Z,27.20
2019-01-16T00:27:07.608Z,27.20
2019-01-16T00:28:03.315Z,27.20
2019-01-16T00:29:16.121Z,27.20
2019-01-16T00:30:05.618Z,27.30
2019-01-16T00:31:02.620Z,27.30
2019-01-16T00:32:03.434Z,27.30
2019-01-16T00:33:12.327Z,27.30
2019-01-16T00:34:25.167Z,27.30
2019-01-16T00:35:20.869Z,27.30
2019-01-16T00:36:21.492Z,27.30
2019-01-16T00:37:27.750Z,27.30
2019-01-16T00:38:20.063Z,27.30
2019-01-16T00:39:32.249Z,27.30
2019-01-16T00:40:33.798Z,27.30
2019-01-16T00:41:23.973Z,27.30
2019-01-16T00:42:24.307Z,27.30
2019-01-16T00:43:45.800Z,27.30
2019-01-16T00:44:52.061Z,27.30
2019-01-16T00:45:47.904Z,27.30
2019-01-16T00:46:48.056Z,27.40
2019-01-16T00:47:40.220Z,27.40
2019-01-16T00:48:32.956Z,27.40
2019-01-16T00:49:28.321Z,27.40
2019-01-16T00:50:34.896Z,27.40
2019-01-16T00:51:31.820Z,27.40
2019-01-16T00:52:29.277Z,27.40
2019-01-16T00:53:17.710Z,27.40
2019-01-16T00:54:18.521Z,27.40
2019-01-16T00:55:30.648Z,27.40
2019-01-16T00:56:42.711Z,27.40
2019-01-16T00:57:35.062Z,27.40
2019-01-16T00:58:36.091Z,27.40
2019-01-16T00:59:50.618Z,27.40
2019-01-16T01:00:50.796Z,27.40
2019-01-16T01:01:46.935Z,27.40
2019-01-16T01:02:41.970Z,27.40
2019-01-16T01:03:39.357Z,27.40
2019-01-16T01:04:39.368Z,27.40
2019-01-16T01:05:38.469Z,27.40
2019-01-16T01:06:29.367Z,27.40
2019-01-16T01:07:32.558Z,27.50
2019-01-16T01:08:41.936Z,27.50
2019-01-16T01:09:37.779Z,27.50
2019-01-16T01:10:27.827Z,27.50
2019-01-16T01:11:25.195Z,27.50
2019-01-16T01:12:21.946Z,27.40
2019-01-16T01:13:42.977Z,27.40
2019-01-16T01:14:39.141Z,27.40
2019-01-16T01:15:42.121Z,27.50
2019-01-16T01:16:39.838Z,27.50
2019-01-16T01:18:00.944Z,27.50
2019-01-16T01:19:07.346Z,27.50
2019-01-16T01:20:13.776Z,27.40
2019-01-16T01:21:17.549Z,27.50
2019-01-16T01:22:26.861Z,27.50
2019-01-16T01:23:20.112Z,27.50
2019-01-16T01:24:26.994Z,27.50
2019-01-16T01:25:39.612Z,27.50
2019-01-16T01:26:38.399Z,27.50
2019-01-16T01:27:41.867Z,27.50
2019-01-16T01:28:38.429Z,27.50
2019-01-16T01:29:25.044Z,27.50
2019-01-16T01:30:28.284Z,27.50
2019-01-16T01:31:31.251Z,27.50
2019-01-16T01:32:31.260Z,27.50
2019-01-16T01:33:34.643Z,27.50
2019-01-16T01:34:22.601Z,27.50
2019-01-16T01:35:18.681Z,27.50
2019-01-16T01:36:22.579Z,27.50
2019-01-16T01:37:25.937Z,27.50
2019-01-16T01:38:21.971Z,27.50
2019-01-16T01:39:17.386Z,27.50
2019-01-16T01:40:23.016Z,27.50
2019-01-16T01:41:20.259Z,27.60
2019-01-16T01:42:22.823Z,27.50
2019-01-16T01:43:34.661Z,27.50
2019-01-16T01:44:46.731Z,27.60
2019-01-16T01:45:55.719Z,27.60
2019-01-16T01:46:50.761Z,27.60
2019-01-16T01:47:50.791Z,27.60
2019-01-16T01:49:05.838Z,27.60
2019-01-16T01:50:05.386Z,27.50
2019-01-16T01:51:05.133Z,27.60
2019-01-16T01:52:08.043Z,27.60
2019-01-16T01:53:04.884Z,27.60
2019-01-16T01:54:05.631Z,27.60
2019-01-16T01:55:05.345Z,27.60
2019-01-16T01:55:54.330Z,27.60
2019-01-16T01:57:09.151Z,27.60
2019-01-16T01:58:11.981Z,27.60
2019-01-16T01:59:12.620Z,27.60
2019-01-16T02:00:07.693Z,27.60
2019-01-16T02:00:57.113Z,27.60
2019-01-16T02:02:11.483Z,27.60
2019-01-16T02:03:08.227Z,27.60
2019-01-16T02:04:01.128Z,27.60
2019-01-16T02:05:00.844Z,27.60
2019-01-16T02:05:56.136Z,27.60
2019-01-16T02:06:48.970Z,27.60
2019-01-16T02:07:46.639Z,27.60
2019-01-16T02:08:49.306Z,27.60
2019-01-16T02:09:44.499Z,27.60
2019-01-16T02:10:41.227Z,27.60
2019-01-16T02:11:43.985Z,27.60
2019-01-16T02:12:46.500Z,27.60
2019-01-16T02:13:41.809Z,27.70
2019-01-16T02:14:30.707Z,27.70
2019-01-16T02:15:30.406Z,27.70
2019-01-16T02:16:33.997Z,27.70
2019-01-16T02:17:41.463Z,27.70
2019-01-16T02:18:38.473Z,27.70
2019-01-16T02:19:39.947Z,27.60
2019-01-16T02:20:37.211Z,27.60
2019-01-16T02:21:44.587Z,27.70
2019-01-16T02:22:40.489Z,27.70
2019-01-16T02:23:43.980Z,27.70
2019-01-16T02:24:56.603Z,27.70
2019-01-16T02:25:56.065Z,27.70
2019-01-16T02:27:01.706Z,27.70
2019-01-16T02:28:14.104Z,27.70
2019-01-16T02:29:14.972Z,27.70
2019-01-16T02:30:12.163Z,27.70
2019-01-16T02:31:15.614Z,27.70
2019-01-16T02:32:11.885Z,27.70
2019-01-16T02:33:18.327Z,27.70
2019-01-16T02:34:11.019Z,27.70
2019-01-16T02:35:11.506Z,27.70
2019-01-16T02:36:08.897Z,27.70
2019-01-16T02:36:59.048Z,27.70
2019-01-16T02:37:46.860Z,27.70
2019-01-16T02:38:48.068Z,27.80
2019-01-16T02:39:47.603Z,27.70
2019-01-16T02:40:44.807Z,27.70
2019-01-16T02:41:54.442Z,27.80
2019-01-16T02:42:43.621Z,27.70
2019-01-16T02:43:34.977Z,27.80
2019-01-16T02:44:32.125Z,27.70
2019-01-16T02:45:32.965Z,27.70
2019-01-16T02:46:26.808Z,27.80
2019-01-16T02:47:35.845Z,27.70
2019-01-16T02:48:32.976Z,27.80
2019-01-16T02:49:37.332Z,27.80
2019-01-16T02:50:42.601Z,27.80
2019-01-16T02:51:40.229Z,27.80
2019-01-16T02:52:30.354Z,27.80
2019-01-16T02:53:27.033Z,27.80
2019-01-16T02:54:23.649Z,27.80
2019-01-16T02:55:18.741Z,27.80
2019-01-16T02:56:06.814Z,27.80
2019-01-16T02:57:08.950Z,27.80
2019-01-16T02:58:01.238Z,27.80
2019-01-16T02:59:04.960Z,27.80
2019-01-16T03:00:08.677Z,27.80
2019-01-16T03:01:02.750Z,27.80
2019-01-16T03:01:58.722Z,27.80
2019-01-16T03:02:58.746Z,27.80
2019-01-16T03:03:54.572Z,27.80
2019-01-16T03:04:51.820Z,27.80
2019-01-16T03:05:55.223Z,27.80
2019-01-16T03:06:51.926Z,27.80
2019-01-16T03:07:55.519Z,27.80
2019-01-16T03:08:52.829Z,27.90
2019-01-16T03:09:55.948Z,27.90
2019-01-16T03:10:50.660Z,27.90
2019-01-16T03:11:50.553Z,27.90
2019-01-16T03:12:46.958Z,27.90
2019-01-16T03:13:42.347Z,27.90
2019-01-16T03:14:43.891Z,27.90
2019-01-16T03:15:54.039Z,27.90
2019-01-16T03:17:00.446Z,27.90
2019-01-16T03:17:55.687Z,27.90
2019-01-16T03:18:51.583Z,27.90
2019-01-16T03:19:47.410Z,27.90
2019-01-16T03:20:50.511Z,27.90
2019-01-16T03:21:46.083Z,27.90
2019-01-16T03:23:01.465Z,27.90
2019-01-16T03:23:57.422Z,27.90
2019-01-16T03:24:47.758Z,27.90
2019-01-16T03:25:42.198Z,27.90
2019-01-16T03:26:33.112Z,27.90
2019-01-16T03:27:32.998Z,27.90
2019-01-16T03:28:20.594Z,27.90
2019-01-16T03:29:15.935Z,27.90
2019-01-16T03:30:20.355Z,28.00
2019-01-16T03:31:05.294Z,28.00
2019-01-16T03:31:56.967Z,28.00
2019-01-16T03:32:53.542Z,28.00
2019-01-16T03:33:53.795Z,28.00
2019-01-16T03:34:49.848Z,28.00
2019-01-16T03:35:57.523Z,28.00
2019-01-16T03:36:52.957Z,28.00
2019-01-16T03:37:42.086Z,28.00
2019-01-16T03:38:45.783Z,28.00
2019-01-16T03:39:55.369Z,27.90
2019-01-16T03:40:55.762Z,28.00
2019-01-16T03:42:08.133Z,28.00
2019-01-16T03:43:23.799Z,28.00
2019-01-16T03:44:21.646Z,28.10
2019-01-16T03:45:17.016Z,28.10
2019-01-16T03:46:12.439Z,28.10
2019-01-16T03:47:03.484Z,28.10
2019-01-16T03:48:01.097Z,28.10
2019-01-16T03:48:56.822Z,28.10
2019-01-16T03:49:52.921Z,28.10
2019-01-16T03:50:48.725Z,28.10
2019-01-16T03:51:57.645Z,28.10
2019-01-16T03:52:52.801Z,28.20
2019-01-16T03:53:57.243Z,28.20
2019-01-16T03:55:03.691Z,28.20
2019-01-16T03:56:13.252Z,28.30
2019-01-16T03:57:12.863Z,28.20
2019-01-16T03:58:18.607Z,28.20
2019-01-16T03:59:13.839Z,28.30
2019-01-16T04:00:08.822Z,28.30
2019-01-16T04:01:10.630Z,28.30
2019-01-16T04:02:16.598Z,28.20
2019-01-16T04:03:11.978Z,28.20
2019-01-16T04:04:17.585Z,28.20
2019-01-16T04:05:23.228Z,28.20
2019-01-16T04:06:23.034Z,28.30
2019-01-16T04:07:14.634Z,28.20
2019-01-16T04:08:07.188Z,28.20
2019-01-16T04:09:06.738Z,28.20
2019-01-16T04:10:06.000Z,28.20
2019-01-16T04:11:01.079Z,28.30
2019-01-16T04:11:56.571Z,28.20
2019-01-16T04:12:42.534Z,28.30
2019-01-16T04:13:44.516Z,28.30
2019-01-16T04:14:44.067Z,28.30
2019-01-16T04:15:37.957Z,28.30
2019-01-16T04:16:52.884Z,28.30
2019-01-16T04:17:38.811Z,28.30
2019-01-16T04:18:44.558Z,28.30
2019-01-16T04:19:41.297Z,28.30
2019-01-16T04:20:32.431Z,28.30
2019-01-16T04:21:26.861Z,28.30
2019-01-16T04:22:26.439Z,28.30
2019-01-16T04:23:35.300Z,28.30
2019-01-16T04:24:36.049Z,28.30
2019-01-16T04:25:47.455Z,28.30
2019-01-16T04:26:55.849Z,28.30
2019-01-16T04:27:51.194Z,28.30
2019-01-16T04:28:41.081Z,28.30
2019-01-16T04:29:44.474Z,28.30
2019-01-16T04:30:39.772Z,28.30
2019-01-16T04:31:32.948Z,28.30
2019-01-16T04:32:41.486Z,28.40
2019-01-16T04:33:45.524Z,28.40
2019-01-16T04:34:45.835Z,28.40
2019-01-16T04:35:41.343Z,28.40
2019-01-16T04:36:47.815Z,28.40
2019-01-16T04:37:44.314Z,28.40
2019-01-16T04:38:42.578Z,28.40
2019-01-16T04:39:39.226Z,28.40
2019-01-16T04:40:26.157Z,28.40
2019-01-16T04:41:29.532Z,28.40
2019-01-16T04:42:25.204Z,28.40
2019-01-16T04:43:34.427Z,28.40
2019-01-16T04:44:39.036Z,28.40
2019-01-16T04:45:27.778Z,28.50
2019-01-16T04:46:24.199Z,28.50
2019-01-16T04:47:30.213Z,28.50
2019-01-16T04:48:39.233Z,28.50
2019-01-16T04:49:33.186Z,28.50
2019-01-16T04:50:39.309Z,28.50
2019-01-16T04:51:34.508Z,28.50
2019-01-16T04:52:38.794Z,28.50
2019-01-16T04:53:55.321Z,28.50
2019-01-16T04:55:10.957Z,28.50
2019-01-16T04:56:19.549Z,28.50
2019-01-16T04:57:31.610Z,28.50
2019-01-16T04:58:27.872Z,28.50
2019-01-16T04:59:20.409Z,28.50
2019-01-16T05:00:14.125Z,28.60
2019-01-16T05:01:20.068Z,28.50
2019-01-16T05:02:23.549Z,28.60
2019-01-16T05:03:19.634Z,28.50
2019-01-16T05:04:16.324Z,28.60
2019-01-16T05:05:16.653Z,28.50
2019-01-16T05:06:13.124Z,28.60
2019-01-16T05:07:17.593Z,28.60
2019-01-16T05:08:20.145Z,28.60
2019-01-16T05:09:23.036Z,28.60
2019-01-16T05:10:38.483Z,28.60
2019-01-16T05:11:35.835Z,28.60
2019-01-16T05:12:40.404Z,28.60
2019-01-16T05:13:40.179Z,28.60
2019-01-16T05:14:33.716Z,28.60
2019-01-16T05:15:29.417Z,28.60
2019-01-16T05:16:29.522Z,28.60
2019-01-16T05:17:25.498Z,28.60
2019-01-16T05:18:32.512Z,28.70
2019-01-16T05:19:38.376Z,28.60
2019-01-16T05:20:36.190Z,28.70
2019-01-16T05:21:40.200Z,28.70
2019-01-16T05:22:36.056Z,28.70
2019-01-16T05:23:43.163Z,28.70
2019-01-16T05:24:41.271Z,28.70
2019-01-16T05:25:36.826Z,28.70
2019-01-16T05:26:40.224Z,28.70
2019-01-16T05:27:35.601Z,28.70
2019-01-16T05:28:45.874Z,28.70
2019-01-16T05:29:43.135Z,28.70
2019-01-16T05:30:39.435Z,28.80
2019-01-16T05:31:42.318Z,28.80
2019-01-16T05:32:43.966Z,28.80
2019-01-16T05:33:30.693Z,28.80
2019-01-16T05:34:40.141Z,28.80
2019-01-16T05:35:31.249Z,28.80
2019-01-16T05:36:19.937Z,28.80
2019-01-16T05:37:15.855Z,28.80
2019-01-16T05:38:16.517Z,28.80
2019-01-16T05:39:26.590Z,28.80
2019-01-16T05:40:20.546Z,28.80
2019-01-16T05:41:17.693Z,28.80
2019-01-16T05:42:14.834Z,28.80
2019-01-16T05:43:21.381Z,28.80
2019-01-16T05:44:30.515Z,28.80
2019-01-16T05:45:31.393Z,28.80
2019-01-16T05:46:29.549Z,28.90
2019-01-16T05:47:26.744Z,28.90
2019-01-16T05:48:24.197Z,28.90
2019-01-16T05:49:29.843Z,28.90
2019-01-16T05:50:23.289Z,28.90
2019-01-16T05:51:17.538Z,28.90
2019-01-16T05:52:23.654Z,28.90
2019-01-16T05:53:32.570Z,28.90
2019-01-16T05:54:44.427Z,28.90
2019-01-16T05:55:56.353Z,28.90
2019-01-16T05:56:51.572Z,28.90
2019-01-16T05:57:46.574Z,28.90
2019-01-16T05:58:34.485Z,29.00
2019-01-16T05:59:29.725Z,29.00
2019-01-16T06:00:21.790Z,29.00
2019-01-16T06:01:18.436Z,29.00
2019-01-16T06:02:13.451Z,29.00
2019-01-16T06:03:08.441Z,29.00
2019-01-16T06:04:04.285Z,29.00
2019-01-16T06:05:13.170Z,29.00
2019-01-16T06:06:08.385Z,29.00
2019-01-16T06:07:04.321Z,29.00
2019-01-16T06:07:55.363Z,29.00
2019-01-16T06:09:10.247Z,29.00
2019-01-16T06:10:05.277Z,29.00
2019-01-16T06:10:54.232Z,29.00
2019-01-16T06:11:58.287Z,29.10
2019-01-16T06:12:53.131Z,29.10
2019-01-16T06:13:52.547Z,29.10
2019-01-16T06:14:47.581Z,29.10
2019-01-16T06:15:36.364Z,29.10
2019-01-16T06:16:33.126Z,29.10
2019-01-16T06:17:39.042Z,29.10
2019-01-16T06:18:42.898Z,29.10
2019-01-16T06:19:39.946Z,29.10
2019-01-16T06:20:55.499Z,29.10
2019-01-16T06:22:04.145Z,29.10
2019-01-16T06:23:13.010Z,29.10
2019-01-16T06:24:08.369Z,29.10
2019-01-16T06:25:19.933Z,29.20
2019-01-16T06:26:16.326Z,29.10
2019-01-16T06:27:11.184Z,29.20
2019-01-16T06:28:18.256Z,29.20
2019-01-16T06:29:18.998Z,29.20
2019-01-16T06:30:17.155Z,29.20
2019-01-16T06:31:14.842Z,29.20
2019-01-16T06:32:24.663Z,29.20
2019-01-16T06:33:24.800Z,29.20
2019-01-16T06:34:28.271Z,29.20
2019-01-16T06:35:24.889Z,29.20
2019-01-16T06:36:28.286Z,29.20
2019-01-16T06:37:24.574Z,29.20
2019-01-16T06:38:34.352Z,29.20
2019-01-16T06:39:24.000Z,29.30
2019-01-16T06:40:23.908Z,29.30
2019-01-16T06:41:26.836Z,29.30
2019-01-16T06:42:26.876Z,29.30
2019-01-16T06:43:23.710Z,29.30
2019-01-16T06:44:30.857Z,29.30
2019-01-16T06:45:23.245Z,29.30
2019-01-16T06:46:23.730Z,29.30
2019-01-16T06:47:27.211Z,29.30
2019-01-16T06:48:27.386Z,29.30
2019-01-16T06:49:36.818Z,29.30
2019-01-16T06:50:25.998Z,29.30
2019-01-16T06:51:22.441Z,29.30
2019-01-16T06:52:19.754Z,29.30
2019-01-16T06:53:15.788Z,29.30
2019-01-16T06:54:11.479Z,29.30
2019-01-16T06:55:07.436Z,29.30
2019-01-16T06:56:16.842Z,29.40
2019-01-16T06:57:14.891Z,29.30
2019-01-16T06:58:07.820Z,29.40
2019-01-16T06:59:01.416Z,29.40
2019-01-16T07:00:07.639Z,29.30
2019-01-16T07:01:02.966Z,29.40
2019-01-16T07:01:57.943Z,29.40
2019-01-16T07:03:04.484Z,29.40
2019-01-16T07:04:00.369Z,29.40
2019-01-16T07:05:06.937Z,29.40
2019-01-16T07:06:09.070Z,29.40
2019-01-16T07:07:14.026Z,29.40
2019-01-16T07:08:10.028Z,29.40
2019-01-16T07:09:13.746Z,29.40
2019-01-16T07:10:04.123Z,29.40
2019-01-16T07:10:55.837Z,29.40
2019-01-16T07:11:56.664Z,29.40
2019-01-16T07:12:59.609Z,29.40
2019-01-16T07:13:46.772Z,29.40
2019-01-16T07:14:42.964Z,29.40
2019-01-16T07:15:43.574Z,29.40
2019-01-16T07:16:37.350Z,29.40
2019-01-16T07:17:40.408Z,29.50
2019-01-16T07:18:55.686Z,29.50
2019-01-16T07:19:59.480Z,29.50
2019-01-16T07:20:54.268Z,29.50
2019-01-16T07:21:50.180Z,29.50
2019-01-16T07:22:52.851Z,29.50
2019-01-16T07:23:48.926Z,29.50
2019-01-16T07:24:45.394Z,29.50
2019-01-16T07:25:42.037Z,29.50
2019-01-16T07:26:41.862Z,29.50
2019-01-16T07:27:48.618Z,29.50
2019-01-16T07:28:57.935Z,29.50
2019-01-16T07:29:53.113Z,29.50
2019-01-16T07:30:47.175Z,29.50
2019-01-16T07:31:51.175Z,29.50
2019-01-16T07:32:57.363Z,29.50
2019-01-16T07:33:54.903Z,29.50
2019-01-16T07:34:59.184Z,29.50
2019-01-16T07:35:56.673Z,29.60
2019-01-16T07:36:51.083Z,29.50
2019-01-16T07:38:00.243Z,29.60
2019-01-16T07:38:52.769Z,29.60
2019-01-16T07:39:49.190Z,29.60
2019-01-16T07:40:46.531Z,29.60
2019-01-16T07:41:42.781Z,29.60
2019-01-16T07:42:38.746Z,29.60
2019-01-16T07:43:34.608Z,29.60
2019-01-16T07:44:47.862Z,29.60
2019-01-16T07:45:44.284Z,29.60
2019-01-16T07:46:41.540Z,29.60
2019-01-16T07:47:50.220Z,29.60
2019-01-16T07:48:58.742Z,29.60
2019-01-16T07:49:55.513Z,29.60
2019-01-16T07:50:54.965Z,29.60
2019-01-16T07:52:00.302Z,29.60
2019-01-16T07:53:10.863Z,29.60
2019-01-16T07:54:25.491Z,29.60
2019-01-16T07:55:20.728Z,29.70
2019-01-16T07:56:26.458Z,29.70
2019-01-16T07:57:21.420Z,29.70
2019-01-16T07:58:22.088Z,29.70
2019-01-16T07:59:24.747Z,29.70
2019-01-16T08:00:21.505Z,29.70
2019-01-16T08:01:18.231Z,29.70
2019-01-16T08:02:21.374Z,29.70
2019-01-16T08:03:27.378Z,29.70
2019-01-16T08:04:22.032Z,29.70
2019-01-16T08:05:33.721Z,29.70
2019-01-16T08:06:28.909Z,29.70
2019-01-16T08:07:23.846Z,29.70
2019-01-16T08:08:23.473Z,29.70
2019-01-16T08:09:22.046Z,29.70
2019-01-16T08:10:33.695Z,29.70
2019-01-16T08:11:33.095Z,29.70
2019-01-16T08:12:44.893Z,29.70
2019-01-16T08:13:40.051Z,29.70
2019-01-16T08:14:34.972Z,29.70
2019-01-16T08:15:32.348Z,29.70
2019-01-16T08:16:41.233Z,29.70
2019-01-16T08:17:49.616Z,29.70
2019-01-16T08:18:55.155Z,29.70
2019-01-16T08:20:01.475Z,29.80
2019-01-16T08:21:04.374Z,29.80
2019-01-16T08:21:59.439Z,29.80
2019-01-16T08:23:03.158Z,29.80
2019-01-16T08:24:02.952Z,29.80
2019-01-16T08:25:12.378Z,29.80
2019-01-16T08:26:09.107Z,29.80
2019-01-16T08:27:05.729Z,29.80
2019-01-16T08:28:02.367Z,29.80
2019-01-16T08:28:57.413Z,29.80
2019-01-16T08:30:06.338Z,29.80
2019-01-16T08:31:09.059Z,29.80
2019-01-16T08:32:22.726Z,29.80
2019-01-16T08:33:23.087Z,29.80
2019-01-16T08:34:25.976Z,29.80
2019-01-16T08:35:12.557Z,29.80
2019-01-16T08:36:07.104Z,29.80
2019-01-16T08:37:02.736Z,29.80
2019-01-16T08:37:58.790Z,29.80
2019-01-16T08:38:57.666Z,29.80
2019-01-16T08:39:54.044Z,29.80
2019-01-16T08:40:53.606Z,29.90
2019-01-16T08:42:03.549Z,29.80
2019-01-16T08:42:52.769Z,29.80
2019-01-16T08:43:53.445Z,29.80
2019-01-16T08:44:53.265Z,29.90
2019-01-16T08:45:51.331Z,29.90
2019-01-16T08:46:46.893Z,29.90
2019-01-16T08:47:42.545Z,29.90
2019-01-16T08:48:43.920Z,29.90
2019-01-16T08:49:46.630Z,29.90
2019-01-16T08:50:44.387Z,29.90
2019-01-16T08:51:41.152Z,29.90
2019-01-16T08:52:41.327Z,29.90
2019-01-16T08:53:37.284Z,29.90
2019-01-16T08:54:37.069Z,29.90
2019-01-16T08:55:32.856Z,29.90
2019-01-16T08:56:42.669Z,29.90
2019-01-16T08:57:52.527Z,29.90
2019-01-16T08:58:49.984Z,29.90
2019-01-16T08:59:42.773Z,29.90
2019-01-16T09:00:38.408Z,29.90
2019-01-16T09:01:35.342Z,29.90
2019-01-16T09:02:25.613Z,29.90
2019-01-16T09:03:41.160Z,29.90
2019-01-16T09:04:37.498Z,29.90
2019-01-16T09:05:43.659Z,29.90
2019-01-16T09:06:44.086Z,29.90
2019-01-16T09:07:47.763Z,29.90
2019-01-16T09:08:44.807Z,30.00
2019-01-16T09:09:51.376Z,29.90
2019-01-16T09:10:47.657Z,30.00
2019-01-16T09:11:43.203Z,30.00
2019-01-16T09:12:48.894Z,30.00
2019-01-16T09:13:46.172Z,30.00
2019-01-16T09:14:49.341Z,29.90
2019-01-16T09:15:54.864Z,30.00
2019-01-16T09:16:45.788Z,29.80
2019-01-16T09:17:37.335Z,30.00
2019-01-16T09:18:37.393Z,30.00
2019-01-16T09:19:30.065Z,30.00
2019-01-16T09:20:43.956Z,30.00
2019-01-16T09:21:50.030Z,30.00
2019-01-16T09:22:44.939Z,30.00
2019-01-16T09:23:39.500Z,30.00
2019-01-16T09:24:33.271Z,30.00
2019-01-16T09:25:30.283Z,30.00
2019-01-16T09:26:27.717Z,30.00
2019-01-16T09:27:28.129Z,30.00
2019-01-16T09:28:31.015Z,30.00
2019-01-16T09:29:28.662Z,30.00
2019-01-16T09:30:24.321Z,30.00
2019-01-16T09:31:27.395Z,30.10
2019-01-16T09:32:30.544Z,30.00
2019-01-16T09:33:27.320Z,30.00
2019-01-16T09:34:23.743Z,30.00
2019-01-16T09:35:28.928Z,30.10
2019-01-16T09:36:32.366Z,30.10
2019-01-16T09:37:29.763Z,30.10
2019-01-16T09:38:36.426Z,30.10
2019-01-16T09:39:38.893Z,30.10
2019-01-16T09:40:41.636Z,30.10
2019-01-16T09:41:37.774Z,30.10
2019-01-16T09:42:38.057Z,30.10
2019-01-16T09:43:29.167Z,30.10
2019-01-16T09:44:31.362Z,30.10
2019-01-16T09:45:46.778Z,30.10
2019-01-16T09:46:43.413Z,30.10
2019-01-16T09:47:46.483Z,30.10
2019-01-16T09:48:35.626Z,30.10
2019-01-16T09:49:31.876Z,30.10
2019-01-16T09:50:18.511Z,30.10
2019-01-16T09:51:10.743Z,30.10
2019-01-16T09:52:01.700Z,30.10
2019-01-16T09:53:03.177Z,30.10
2019-01-16T09:54:05.141Z,30.10
2019-01-16T09:55:00.379Z,30.10
2019-01-16T09:56:15.142Z,30.10
2019-01-16T09:57:10.431Z,30.10
2019-01-16T09:58:13.197Z,30.10
2019-01-16T09:59:08.525Z,30.10
2019-01-16T10:00:08.310Z,30.10
2019-01-16T10:01:13.882Z,30.10
2019-01-16T10:02:03.860Z,30.20
2019-01-16T10:02:58.733Z,30.20
2019-01-16T10:03:53.949Z,30.10
2019-01-16T10:04:41.003Z,30.10
2019-01-16T10:05:41.722Z,30.20
2019-01-16T10:06:30.220Z,30.20
2019-01-16T10:07:33.148Z,30.20
2019-01-16T10:08:24.068Z,30.20
2019-01-16T10:09:19.016Z,30.20
2019-01-16T10:10:14.201Z,30.20
2019-01-16T10:11:09.236Z,30.20
2019-01-16T10:12:05.948Z,30.20
2019-01-16T10:12:59.959Z,30.20
2019-01-16T10:13:59.490Z,30.20
2019-01-16T10:14:50.781Z,30.20
2019-01-16T10:15:53.566Z,30.20
2019-01-16T10:16:53.297Z,30.20
2019-01-16T10:17:48.526Z,30.20
2019-01-16T10:18:45.278Z,30.20
2019-01-16T10:19:42.023Z,30.20
2019-01-16T10:20:47.572Z,30.20
2019-01-16T10:21:50.250Z,30.20
2019-01-16T10:22:37.641Z,30.20
2019-01-16T10:23:41.191Z,30.20
2019-01-16T10:24:41.292Z,30.20
2019-01-16T10:25:27.077Z,30.20
2019-01-16T10:26:16.510Z,30.20
2019-01-16T10:27:12.450Z,30.20
2019-01-16T10:28:21.040Z,30.20
2019-01-16T10:29:16.489Z,30.20
2019-01-16T10:30:32.632Z,30.20
2019-01-16T10:31:44.724Z,30.20
2019-01-16T10:32:55.560Z,30.20
2019-01-16T10:33:49.745Z,30.20
2019-01-16T10:34:57.029Z,30.20
2019-01-16T10:36:00.419Z,30.30
2019-01-16T10:37:03.366Z,30.30
2019-01-16T10:37:55.584Z,30.30
2019-01-16T10:39:07.602Z,30.30
2019-01-16T10:40:16.407Z,30.20
2019-01-16T10:41:11.906Z,30.30
2019-01-16T10:42:11.934Z,30.30
2019-01-16T10:43:15.614Z,30.30
2019-01-16T10:44:04.061Z,30.30
2019-01-16T10:45:04.673Z,30.30
2019-01-16T10:46:05.360Z,30.30
2019-01-16T10:47:03.306Z,30.30
2019-01-16T10:47:54.690Z,30.30
2019-01-16T10:49:09.947Z,30.30
2019-01-16T10:50:07.369Z,30.30
2019-01-16T10:50:54.522Z,30.40
2019-01-16T10:51:49.942Z,30.40
2019-01-16T10:52:46.118Z,30.40
2019-01-16T10:53:43.722Z,30.40
2019-01-16T10:54:33.359Z,30.40
2019-01-16T10:55:21.261Z,30.40
2019-01-16T10:56:16.925Z,30.40
2019-01-16T10:57:26.925Z,30.40
2019-01-16T10:58:33.561Z,30.40
2019-01-16T10:59:28.932Z,30.30
2019-01-16T11:00:25.854Z,30.40
2019-01-16T11:01:18.227Z,30.40
2019-01-16T11:02:17.984Z,30.40
2019-01-16T11:03:13.401Z,30.40
2019-01-16T11:04:13.417Z,30.40
2019-01-16T11:05:10.610Z,30.40
2019-01-16T11:06:07.983Z,30.40
2019-01-16T11:07:19.842Z,30.30
2019-01-16T11:08:32.860Z,30.40
2019-01-16T11:09:23.810Z,30.30
2019-01-16T11:10:20.080Z,30.30
2019-01-16T11:11:16.104Z,30.30
2019-01-16T11:12:11.466Z,30.40
2019-01-16T11:13:08.255Z,30.30
2019-01-16T11:14:06.626Z,30.30
2019-01-16T11:15:02.739Z,30.30
2019-01-16T11:16:00.053Z,30.30
2019-01-16T11:17:04.535Z,30.30
2019-01-16T11:18:00.029Z,30.40
2019-01-16T11:19:06.393Z,30.30
2019-01-16T11:20:01.831Z,30.30
2019-01-16T11:20:57.370Z,30.40
2019-01-16T11:21:52.815Z,30.40
2019-01-16T11:22:48.699Z,30.40
2019-01-16T11:23:54.670Z,30.40
2019-01-16T11:24:52.100Z,30.40
2019-01-16T11:25:47.198Z,30.40
2019-01-16T11:26:40.274Z,30.40
2019-01-16T11:27:32.132Z,30.40
2019-01-16T11:28:28.387Z,30.40
2019-01-16T11:29:25.995Z,30.40
2019-01-16T11:30:41.618Z,30.30
2019-01-16T11:31:43.858Z,30.40
2019-01-16T11:32:59.601Z,30.30
2019-01-16T11:33:56.687Z,30.30
2019-01-16T11:35:03.129Z,30.30
2019-01-16T11:36:09.178Z,30.30
2019-01-16T11:37:06.866Z,30.30
2019-01-16T11:38:02.634Z,30.30
2019-01-16T11:38:59.964Z,30.30
2019-01-16T11:40:05.835Z,30.30
2019-01-16T11:41:21.385Z,30.30
2019-01-16T11:42:28.482Z,30.30
2019-01-16T11:43:31.478Z,30.30
2019-01-16T11:44:34.732Z,30.30
2019-01-16T11:45:26.482Z,30.30
2019-01-16T11:46:26.707Z,30.30
2019-01-16T11:47:22.804Z,30.30
2019-01-16T11:48:18.829Z,30.30
2019-01-16T11:49:24.556Z,30.30
2019-01-16T11:50:37.235Z,30.30
2019-01-16T11:51:46.874Z,30.30
2019-01-16T11:52:47.207Z,30.30
2019-01-16T11:53:57.109Z,30.40
2019-01-16T11:54:53.323Z,30.40
2019-01-16T11:55:55.975Z,30.40
2019-01-16T11:57:04.942Z,30.40
2019-01-16T11:58:14.302Z,30.40
2019-01-16T11:59:20.257Z,30.30
2019-01-16T12:00:19.901Z,30.40
2019-01-16T12:01:14.765Z,30.40
2019-01-16T12:02:10.586Z,30.40
2019-01-16T12:03:00.524Z,30.40
2019-01-16T12:04:15.458Z,30.40
2019-01-16T12:05:12.145Z,30.40
2019-01-16T12:06:04.901Z,30.40
2019-01-16T12:07:01.767Z,30.30
2019-01-16T12:08:16.571Z,30.30
2019-01-16T12:09:31.461Z,30.30
2019-01-16T12:10:38.611Z,30.30
2019-01-16T12:11:38.926Z,30.30
2019-01-16T12:12:36.893Z,30.30
2019-01-16T12:13:42.502Z,30.30
2019-01-16T12:14:41.842Z,30.30
2019-01-16T12:15:36.933Z,30.30
2019-01-16T12:16:33.373Z,30.30
2019-01-16T12:17:33.686Z,30.30
2019-01-16T12:18:36.335Z,30.30
2019-01-16T12:19:31.585Z,30.30
2019-01-16T12:20:29.661Z,30.30
2019-01-16T12:21:26.517Z,30.30
2019-01-16T12:22:16.920Z,30.30
2019-01-16T12:23:16.721Z,30.30
2019-01-16T12:24:13.725Z,30.30
2019-01-16T12:25:09.980Z,30.30
2019-01-16T12:26:17.765Z,30.30
2019-01-16T12:27:30.185Z,30.30
2019-01-16T12:28:25.078Z,30.30
2019-01-16T12:29:34.509Z,30.30
2019-01-16T12:30:34.130Z,30.30
2019-01-16T12:31:20.272Z,30.30
2019-01-16T12:32:32.797Z,30.30
2019-01-16T12:33:30.137Z,30.30
2019-01-16T12:34:27.874Z,30.30
2019-01-16T12:35:25.287Z,30.30
2019-01-16T12:36:26.676Z,30.30
2019-01-16T12:37:24.639Z,30.30
2019-01-16T12:38:24.777Z,30.30
2019-01-16T12:39:22.569Z,30.30
2019-01-16T12:40:25.984Z,30.30
2019-01-16T12:41:17.978Z,30.30
2019-01-16T12:42:21.692Z,30.30
2019-01-16T12:43:14.934Z,30.30
2019-01-16T12:44:14.769Z,30.30
2019-01-16T12:45:18.303Z,30.30
2019-01-16T12:46:21.417Z,30.30
2019-01-16T12:47:17.524Z,30.30
2019-01-16T12:48:06.432Z,30.30
2019-01-16T12:49:01.571Z,30.30
2019-01-16T12:50:05.682Z,30.30
2019-01-16T12:51:07.946Z,30.30